Bournemouth, United Kingdom

5:28 AM BST on September 24, 2014 (GMT +0100)
Bournemouth | Change Station
CLOSE
Current Station
Airport
Location: Bournemouth,
Elevation: 36 ft
Nearby Weather Stations

Elev 36 ft 50.78 °N, 1.84 °W | Updated 8 minutes ago

Partly Cloudy
Partly Cloudy
55 °F
Feels Like 55 °F
N
6
Wind Variable Wind from West

Today
High -- | Low -- °F
--% Chance of Precip.
Yesterday
High -- | Low -- °F
Precip. -- in
6:56 AM 7:01 PM
Waning Crescent, 0% visible
Pressure 29.95 in
Visibility 3.7 miles
Clouds Few 4000 ft
Dew Point 52 °F
Humidity 88%
Rainfall 0.00 in
Snow Depth Not available.
UV 0 out of 12
Pollen Not available.
Air Quality Not available.
Flu Activity Not available.
METAR EGHH 240420Z 27005KT 6000 FEW040 13/11 Q1014

More Conditions Fewer Conditions

Pressure 29.95 in
Visibility 3.7 miles
Clouds Few 4000 ft
Dew Point 52 °F
Humidity 88%
Rainfall 0.00 in
Snow Depth Not available.
UV 0 out of 12
Pollen Not available.
Air Quality Not available.
Flu Activity Not available.
METAR EGHH 240420Z 27005KT 6000 FEW040 13/11 Q1014

More Conditions Fewer Conditions

10-Day Weather Forecast

Almanac

Astronomy

Sep. 24, 2014 Rise Set
Actual Time 6:56 AM BST 7:01 PM BST
Civil Twilight 6:23 AM BST 7:34 PM BST
Nautical Twilight 5:44 AM BST 8:12 PM BST
Astronomical Twilight 5:04 AM BST 8:52 PM BST
Moon 7:06 AM BST 6:58 PM BST
Length of Visible Light 13h 10m
Length of Day
12h 05m
Tomorrow will be 3m 49s shorter.
Waning Crescent, 0% of the Moon is Illuminated
Today
Waning Crescent
Sep 24
New
Oct 1
First Quarter
Oct 8
Full
Oct 15
Last Quarter

Yesterday's Extremes

Country Highs Country Lows

Community

WunderPhotos

Upload Photos

1,755,890 photos uploaded!

WunderBlogs® & News

Nearby

Snow Depth

Not available.

Earthquake Activity

City Distance Mag. Time & Date
No recent earthquake activity has been reported nearby.
Minimum magnitude displayed is 2.5.

Coastal Water Temperatures

Place Temperature
No Stations Reporting

Nearby Weather Stations